Forside
METAR-TAF:

METAR-TAF

Lufthavne :

Killarney, Irland

Breddekreds: 52-10-51N, længdekreds: 9-31-26W, højde: 34 m

Aktuelle vejr

Denne rapport blev lavet for 47 minutter siden, kl. 17:00 UTC
Vind 10 kt fra vest
Temperatur 5°C
Fugtighed 87%
Tryk 1013 hPa
Sigt 10 km eller mere
Nogle få skyer i en højde af 1700 ft
Spredte skyer i en højde af 2900 ft

METAR: EIKY 171700Z 26010KT 9999 FEW017 SCT029 05/03 Q1013

Tid: 17:47 (17:47 UTC)

Vejrudsigter

Denne rapport blev lavet for 47 minutter siden, kl. 17:00 UTC
Foreløbig gælder fra 17 på 18 UTC til 18 på 03 UTC
Vind 13 kt fra vestsydvest med vindstød på up til 23 kt
Sigt 10 km eller mere
Spredte skyer i en højde af 3500 ft
Midlertidig
fra 17 på 18 UTC til 17 på 21 UTC
Vind 20 kt fra vest med vindstød på up til 33 kt
Sigt: 4000 m
Brudte skyer i en højde af 1200 ft
Brudte skyer i en højde af 1800 ft, Cumulonimbus.
regnbyger, små hagl

TAF: EIKY 171700Z 1718/1803 25013G23KT 9999 SCT035 TEMPO 1718/1721 27020G33KT 4000 SHRAGS BKN012 BKN018CB

Vejrobservationer og prognoser fra mere end 4000 lufthavne (METAR og TAF).

De gule og røde prikker repræsenterer de meteorologiske stationer.

Flyt musen over at se navnet på stationen.

Så klik over at se vejr observationer og prognoser.

At skifte det kort: Klik på de grønne knapper med et sort kors for at zoome ind; på den grønne knap med en bindestreg for at zoome ud; eller på de grønne pile for tilstødende kort.


METAR-TAF: